sensor_id;sensor_type;location;lat;lon;timestamp;temperature;humidity
53268;DHT22;39156;51.176;6.738;2023-05-07T00:00:39;16.60;72.90
53268;DHT22;39156;51.176;6.738;2023-05-07T00:03:05;16.50;72.80
53268;DHT22;39156;51.176;6.738;2023-05-07T00:05:32;16.50;72.80
53268;DHT22;39156;51.176;6.738;2023-05-07T00:07:57;16.50;73.00
53268;DHT22;39156;51.176;6.738;2023-05-07T00:10:23;16.50;72.70
53268;DHT22;39156;51.176;6.738;2023-05-07T00:12:49;16.50;73.10
53268;DHT22;39156;51.176;6.738;2023-05-07T00:15:14;16.50;72.40
53268;DHT22;39156;51.176;6.738;2023-05-07T00:17:40;16.50;72.40
53268;DHT22;39156;51.176;6.738;2023-05-07T00:20:07;16.40;72.40
53268;DHT22;39156;51.176;6.738;2023-05-07T00:22:33;16.40;72.40
53268;DHT22;39156;51.176;6.738;2023-05-07T00:24:58;16.50;72.40
53268;DHT22;39156;51.176;6.738;2023-05-07T00:27:25;16.40;72.40
53268;DHT22;39156;51.176;6.738;2023-05-07T00:29:51;16.40;72.80
53268;DHT22;39156;51.176;6.738;2023-05-07T00:32:16;16.40;72.90
53268;DHT22;39156;51.176;6.738;2023-05-07T00:34:43;16.30;73.00
53268;DHT22;39156;51.176;6.738;2023-05-07T00:37:09;16.30;73.30
53268;DHT22;39156;51.176;6.738;2023-05-07T00:39:35;16.40;73.40
53268;DHT22;39156;51.176;6.738;2023-05-07T00:42:01;16.40;73.20
53268;DHT22;39156;51.176;6.738;2023-05-07T00:44:28;16.30;73.10
53268;DHT22;39156;51.176;6.738;2023-05-07T00:46:54;16.30;72.80
53268;DHT22;39156;51.176;6.738;2023-05-07T00:49:20;16.30;72.70
53268;DHT22;39156;51.176;6.738;2023-05-07T00:51:46;16.30;72.90
53268;DHT22;39156;51.176;6.738;2023-05-07T00:54:13;16.30;73.10
53268;DHT22;39156;51.176;6.738;2023-05-07T00:56:39;16.30;73.10
53268;DHT22;39156;51.176;6.738;2023-05-07T00:59:05;16.30;73.20
53268;DHT22;39156;51.176;6.738;2023-05-07T01:01:32;16.20;73.30
53268;DHT22;39156;51.176;6.738;2023-05-07T01:03:57;16.20;73.30
53268;DHT22;39156;51.176;6.738;2023-05-07T01:06:25;16.20;73.20
53268;DHT22;39156;51.176;6.738;2023-05-07T01:08:53;16.20;73.40
53268;DHT22;39156;51.176;6.738;2023-05-07T01:11:22;16.20;73.60
53268;DHT22;39156;51.176;6.738;2023-05-07T01:13:49;16.10;73.40
53268;DHT22;39156;51.176;6.738;2023-05-07T01:16:16;16.10;73.70
53268;DHT22;39156;51.176;6.738;2023-05-07T01:18:41;16.20;73.80
53268;DHT22;39156;51.176;6.738;2023-05-07T01:21:10;16.20;73.40
53268;DHT22;39156;51.176;6.738;2023-05-07T01:23:37;16.10;73.30
53268;DHT22;39156;51.176;6.738;2023-05-07T01:26:03;16.10;73.10
53268;DHT22;39156;51.176;6.738;2023-05-07T01:28:29;16.00;73.10
53268;DHT22;39156;51.176;6.738;2023-05-07T01:31:01;16.00;73.20
53268;DHT22;39156;51.176;6.738;2023-05-07T01:33:31;16.00;73.40
53268;DHT22;39156;51.176;6.738;2023-05-07T01:35:59;15.90;73.30
53268;DHT22;39156;51.176;6.738;2023-05-07T01:38:27;15.90;73.30
53268;DHT22;39156;51.176;6.738;2023-05-07T01:40:53;15.90;73.40
53268;DHT22;39156;51.176;6.738;2023-05-07T01:43:19;15.90;73.40
53268;DHT22;39156;51.176;6.738;2023-05-07T01:45:46;15.90;73.40
53268;DHT22;39156;51.176;6.738;2023-05-07T01:48:14;15.80;73.60
53268;DHT22;39156;51.176;6.738;2023-05-07T01:50:41;15.80;73.50
53268;DHT22;39156;51.176;6.738;2023-05-07T01:53:08;15.80;73.70
53268;DHT22;39156;51.176;6.738;2023-05-07T01:55:34;15.70;73.70
53268;DHT22;39156;51.176;6.738;2023-05-07T01:58:02;15.70;73.90
53268;DHT22;39156;51.176;6.738;2023-05-07T02:00:28;15.60;73.80
53268;DHT22;39156;51.176;6.738;2023-05-07T02:02:54;15.60;73.90
53268;DHT22;39156;51.176;6.738;2023-05-07T02:05:20;15.60;74.10
53268;DHT22;39156;51.176;6.738;2023-05-07T02:07:46;15.60;74.20
53268;DHT22;39156;51.176;6.738;2023-05-07T02:10:11;15.50;74.30
53268;DHT22;39156;51.176;6.738;2023-05-07T02:12:37;15.60;74.40
53268;DHT22;39156;51.176;6.738;2023-05-07T02:15:03;15.50;74.40
53268;DHT22;39156;51.176;6.738;2023-05-07T02:17:29;15.50;74.40
53268;DHT22;39156;51.176;6.738;2023-05-07T02:19:57;15.50;74.50
53268;DHT22;39156;51.176;6.738;2023-05-07T02:22:23;15.50;74.50
53268;DHT22;39156;51.176;6.738;2023-05-07T02:24:48;15.50;74.50
53268;DHT22;39156;51.176;6.738;2023-05-07T02:27:14;15.40;74.50
53268;DHT22;39156;51.176;6.738;2023-05-07T02:29:40;15.50;75.30
53268;DHT22;39156;51.176;6.738;2023-05-07T02:32:05;15.40;74.80
53268;DHT22;39156;51.176;6.738;2023-05-07T02:34:31;15.40;74.80
53268;DHT22;39156;51.176;6.738;2023-05-07T02:36:57;15.40;75.00
53268;DHT22;39156;51.176;6.738;2023-05-07T02:39:22;15.40;75.10
53268;DHT22;39156;51.176;6.738;2023-05-07T02:41:48;15.30;75.00
53268;DHT22;39156;51.176;6.738;2023-05-07T02:44:14;15.40;75.10
53268;DHT22;39156;51.176;6.738;2023-05-07T02:46:39;15.30;75.10
53268;DHT22;39156;51.176;6.738;2023-05-07T02:49:05;15.30;75.00
53268;DHT22;39156;51.176;6.738;2023-05-07T02:51:31;15.30;75.00
53268;DHT22;39156;51.176;6.738;2023-05-07T02:53:57;15.30;74.90
53268;DHT22;39156;51.176;6.738;2023-05-07T02:56:22;15.30;74.90
53268;DHT22;39156;51.176;6.738;2023-05-07T02:58:48;15.30;74.90
53268;DHT22;39156;51.176;6.738;2023-05-07T03:01:14;15.20;74.80
53268;DHT22;39156;51.176;6.738;2023-05-07T03:03:40;15.20;74.80
53268;DHT22;39156;51.176;6.738;2023-05-07T03:06:06;15.10;74.80
53268;DHT22;39156;51.176;6.738;2023-05-07T03:08:32;15.20;74.90
53268;DHT22;39156;51.176;6.738;2023-05-07T03:10:58;15.20;75.00
53268;DHT22;39156;51.176;6.738;2023-05-07T03:13:24;15.20;74.90
53268;DHT22;39156;51.176;6.738;2023-05-07T03:15:49;15.10;74.90
53268;DHT22;39156;51.176;6.738;2023-05-07T03:18:15;15.20;75.20
53268;DHT22;39156;51.176;6.738;2023-05-07T03:20:41;15.20;75.00
53268;DHT22;39156;51.176;6.738;2023-05-07T03:23:06;15.20;75.00
53268;DHT22;39156;51.176;6.738;2023-05-07T03:25:32;15.20;75.00
53268;DHT22;39156;51.176;6.738;2023-05-07T03:27:58;15.20;74.90
53268;DHT22;39156;51.176;6.738;2023-05-07T03:30:24;15.20;74.90
53268;DHT22;39156;51.176;6.738;2023-05-07T03:32:49;15.20;75.00
53268;DHT22;39156;51.176;6.738;2023-05-07T03:35:15;15.20;74.80
53268;DHT22;39156;51.176;6.738;2023-05-07T03:37:41;15.20;75.00
53268;DHT22;39156;51.176;6.738;2023-05-07T03:40:07;15.20;74.80
53268;DHT22;39156;51.176;6.738;2023-05-07T03:42:34;15.20;74.80
53268;DHT22;39156;51.176;6.738;2023-05-07T03:45:00;15.20;74.80
53268;DHT22;39156;51.176;6.738;2023-05-07T03:47:25;15.20;74.70
53268;DHT22;39156;51.176;6.738;2023-05-07T03:49:51;15.20;74.70
53268;DHT22;39156;51.176;6.738;2023-05-07T03:52:19;15.10;74.50
53268;DHT22;39156;51.176;6.738;2023-05-07T03:54:49;15.10;74.60
53268;DHT22;39156;51.176;6.738;2023-05-07T03:57:14;15.10;74.60
53268;DHT22;39156;51.176;6.738;2023-05-07T03:59:40;15.10;74.70
53268;DHT22;39156;51.176;6.738;2023-05-07T04:02:06;15.10;74.70
53268;DHT22;39156;51.176;6.738;2023-05-07T04:04:31;15.10;75.50
53268;DHT22;39156;51.176;6.738;2023-05-07T04:06:58;15.00;74.90
53268;DHT22;39156;51.176;6.738;2023-05-07T04:09:24;15.00;74.90
53268;DHT22;39156;51.176;6.738;2023-05-07T04:11:50;15.00;75.00
53268;DHT22;39156;51.176;6.738;2023-05-07T04:14:16;15.00;74.90
53268;DHT22;39156;51.176;6.738;2023-05-07T04:16:41;15.10;75.00
53268;DHT22;39156;51.176;6.738;2023-05-07T04:19:07;15.10;75.10
53268;DHT22;39156;51.176;6.738;2023-05-07T04:21:33;15.10;75.20
53268;DHT22;39156;51.176;6.738;2023-05-07T04:23:58;15.00;75.20
53268;DHT22;39156;51.176;6.738;2023-05-07T04:26:24;15.10;75.30
53268;DHT22;39156;51.176;6.738;2023-05-07T04:28:50;15.10;75.30
53268;DHT22;39156;51.176;6.738;2023-05-07T04:31:16;15.10;75.30
53268;DHT22;39156;51.176;6.738;2023-05-07T04:33:41;15.10;75.50
53268;DHT22;39156;51.176;6.738;2023-05-07T04:36:07;15.20;75.40
53268;DHT22;39156;51.176;6.738;2023-05-07T04:38:33;15.20;75.10
53268;DHT22;39156;51.176;6.738;2023-05-07T04:41:06;15.20;75.10
53268;DHT22;39156;51.176;6.738;2023-05-07T04:43:32;15.30;75.00
53268;DHT22;39156;51.176;6.738;2023-05-07T04:45:58;15.30;74.70
53268;DHT22;39156;51.176;6.738;2023-05-07T04:48:24;15.30;74.60
53268;DHT22;39156;51.176;6.738;2023-05-07T04:50:50;15.30;74.60
53268;DHT22;39156;51.176;6.738;2023-05-07T04:53:17;15.30;74.60
53268;DHT22;39156;51.176;6.738;2023-05-07T04:55:43;15.40;74.60
53268;DHT22;39156;51.176;6.738;2023-05-07T04:58:10;15.40;74.50
53268;DHT22;39156;51.176;6.738;2023-05-07T05:00:36;15.40;74.40
53268;DHT22;39156;51.176;6.738;2023-05-07T05:03:02;15.40;74.40
53268;DHT22;39156;51.176;6.738;2023-05-07T05:05:27;15.40;74.40
53268;DHT22;39156;51.176;6.738;2023-05-07T05:07:53;15.40;74.40
53268;DHT22;39156;51.176;6.738;2023-05-07T05:10:19;15.40;74.40
53268;DHT22;39156;51.176;6.738;2023-05-07T05:12:44;15.40;74.40
53268;DHT22;39156;51.176;6.738;2023-05-07T05:15:11;15.40;74.50
53268;DHT22;39156;51.176;6.738;2023-05-07T05:17:38;15.40;74.50
53268;DHT22;39156;51.176;6.738;2023-05-07T05:20:04;15.40;74.50
53268;DHT22;39156;51.176;6.738;2023-05-07T05:22:31;15.40;74.50
53268;DHT22;39156;51.176;6.738;2023-05-07T05:24:57;15.40;74.50
53268;DHT22;39156;51.176;6.738;2023-05-07T05:27:23;15.40;74.40
53268;DHT22;39156;51.176;6.738;2023-05-07T05:29:49;15.40;74.30
53268;DHT22;39156;51.176;6.738;2023-05-07T05:32:15;15.40;74.30
53268;DHT22;39156;51.176;6.738;2023-05-07T05:34:40;15.50;74.30
53268;DHT22;39156;51.176;6.738;2023-05-07T05:37:06;15.50;74.40
53268;DHT22;39156;51.176;6.738;2023-05-07T05:39:32;15.50;74.00
53268;DHT22;39156;51.176;6.738;2023-05-07T05:41:57;15.50;74.50
53268;DHT22;39156;51.176;6.738;2023-05-07T05:44:23;15.60;73.80
53268;DHT22;39156;51.176;6.738;2023-05-07T05:46:49;15.70;73.80
53268;DHT22;39156;51.176;6.738;2023-05-07T05:49:15;15.70;73.60
53268;DHT22;39156;51.176;6.738;2023-05-07T05:51:41;15.80;73.70
53268;DHT22;39156;51.176;6.738;2023-05-07T05:54:06;15.80;73.40
53268;DHT22;39156;51.176;6.738;2023-05-07T05:56:32;15.80;73.30
53268;DHT22;39156;51.176;6.738;2023-05-07T05:58:58;15.90;73.30
53268;DHT22;39156;51.176;6.738;2023-05-07T06:01:24;15.90;73.20
53268;DHT22;39156;51.176;6.738;2023-05-07T06:03:52;16.00;73.10
53268;DHT22;39156;51.176;6.738;2023-05-07T06:06:17;16.00;72.90
53268;DHT22;39156;51.176;6.738;2023-05-07T06:08:43;16.00;72.90
53268;DHT22;39156;51.176;6.738;2023-05-07T06:11:09;16.10;72.90
53268;DHT22;39156;51.176;6.738;2023-05-07T06:13:34;16.10;72.80
53268;DHT22;39156;51.176;6.738;2023-05-07T06:16:00;16.10;72.90
53268;DHT22;39156;51.176;6.738;2023-05-07T06:18:26;16.20;72.80
53268;DHT22;39156;51.176;6.738;2023-05-07T06:20:52;16.20;72.90
53268;DHT22;39156;51.176;6.738;2023-05-07T06:23:18;16.20;73.50
53268;DHT22;39156;51.176;6.738;2023-05-07T06:25:50;16.30;72.80
53268;DHT22;39156;51.176;6.738;2023-05-07T06:28:16;16.40;72.80
53268;DHT22;39156;51.176;6.738;2023-05-07T06:30:42;16.40;72.70
53268;DHT22;39156;51.176;6.738;2023-05-07T06:33:07;16.50;72.80
53268;DHT22;39156;51.176;6.738;2023-05-07T06:35:33;16.50;72.80
53268;DHT22;39156;51.176;6.738;2023-05-07T06:37:59;16.70;72.70
53268;DHT22;39156;51.176;6.738;2023-05-07T06:40:26;16.80;72.30
53268;DHT22;39156;51.176;6.738;2023-05-07T06:42:52;17.00;72.30
53268;DHT22;39156;51.176;6.738;2023-05-07T06:45:18;17.10;72.30
53268;DHT22;39156;51.176;6.738;2023-05-07T06:47:45;17.30;72.20
53268;DHT22;39156;51.176;6.738;2023-05-07T06:50:10;17.50;71.90
53268;DHT22;39156;51.176;6.738;2023-05-07T06:52:36;17.70;71.90
53268;DHT22;39156;51.176;6.738;2023-05-07T06:55:02;18.00;71.50
53268;DHT22;39156;51.176;6.738;2023-05-07T06:57:28;18.30;71.30
53268;DHT22;39156;51.176;6.738;2023-05-07T06:59:53;18.60;70.60
53268;DHT22;39156;51.176;6.738;2023-05-07T07:02:19;18.90;70.20
53268;DHT22;39156;51.176;6.738;2023-05-07T07:04:45;19.10;69.40
53268;DHT22;39156;51.176;6.738;2023-05-07T07:07:10;19.40;69.10
53268;DHT22;39156;51.176;6.738;2023-05-07T07:09:36;19.60;68.00
53268;DHT22;39156;51.176;6.738;2023-05-07T07:12:02;19.80;67.80
53268;DHT22;39156;51.176;6.738;2023-05-07T07:14:28;20.00;67.50
53268;DHT22;39156;51.176;6.738;2023-05-07T07:16:53;20.30;67.40
53268;DHT22;39156;51.176;6.738;2023-05-07T07:19:19;20.50;67.20
53268;DHT22;39156;51.176;6.738;2023-05-07T07:21:45;20.70;66.60
53268;DHT22;39156;51.176;6.738;2023-05-07T07:24:12;20.90;66.00
53268;DHT22;39156;51.176;6.738;2023-05-07T07:26:38;21.20;65.40
53268;DHT22;39156;51.176;6.738;2023-05-07T07:29:05;21.50;65.40
53268;DHT22;39156;51.176;6.738;2023-05-07T07:31:32;21.70;64.50
53268;DHT22;39156;51.176;6.738;2023-05-07T07:33:57;22.00;63.90
53268;DHT22;39156;51.176;6.738;2023-05-07T07:36:23;22.10;63.10
53268;DHT22;39156;51.176;6.738;2023-05-07T07:38:49;22.20;61.80
53268;DHT22;39156;51.176;6.738;2023-05-07T07:41:14;22.20;61.40
53268;DHT22;39156;51.176;6.738;2023-05-07T07:43:40;22.10;60.70
53268;DHT22;39156;51.176;6.738;2023-05-07T07:46:06;22.20;60.60
53268;DHT22;39156;51.176;6.738;2023-05-07T07:48:31;22.20;60.50
53268;DHT22;39156;51.176;6.738;2023-05-07T07:50:57;22.20;60.50
53268;DHT22;39156;51.176;6.738;2023-05-07T07:53:23;22.20;60.70
53268;DHT22;39156;51.176;6.738;2023-05-07T07:55:48;22.40;60.70
53268;DHT22;39156;51.176;6.738;2023-05-07T07:58:14;22.50;60.90
53268;DHT22;39156;51.176;6.738;2023-05-07T08:00:40;22.60;60.50
53268;DHT22;39156;51.176;6.738;2023-05-07T08:03:05;22.80;60.30
53268;DHT22;39156;51.176;6.738;2023-05-07T08:05:34;22.90;60.30
53268;DHT22;39156;51.176;6.738;2023-05-07T08:08:00;23.10;59.60
53268;DHT22;39156;51.176;6.738;2023-05-07T08:10:26;23.40;59.80
53268;DHT22;39156;51.176;6.738;2023-05-07T08:12:52;23.60;59.50
53268;DHT22;39156;51.176;6.738;2023-05-07T08:15:18;23.70;58.90
53268;DHT22;39156;51.176;6.738;2023-05-07T08:17:44;23.90;58.60
53268;DHT22;39156;51.176;6.738;2023-05-07T08:20:09;24.00;58.50
53268;DHT22;39156;51.176;6.738;2023-05-07T08:22:35;24.20;57.80
53268;DHT22;39156;51.176;6.738;2023-05-07T08:25:01;24.40;59.50
53268;DHT22;39156;51.176;6.738;2023-05-07T08:27:27;24.50;57.70
53268;DHT22;39156;51.176;6.738;2023-05-07T08:29:53;24.60;60.00
53268;DHT22;39156;51.176;6.738;2023-05-07T08:32:20;24.60;57.30
53268;DHT22;39156;51.176;6.738;2023-05-07T08:34:46;24.70;57.00
53268;DHT22;39156;51.176;6.738;2023-05-07T08:37:12;24.70;56.70
53268;DHT22;39156;51.176;6.738;2023-05-07T08:39:38;24.80;56.70
53268;DHT22;39156;51.176;6.738;2023-05-07T08:42:04;24.90;56.60
53268;DHT22;39156;51.176;6.738;2023-05-07T08:44:33;25.00;56.40
53268;DHT22;39156;51.176;6.738;2023-05-07T08:47:01;25.10;55.60
53268;DHT22;39156;51.176;6.738;2023-05-07T08:49:28;25.20;55.70
53268;DHT22;39156;51.176;6.738;2023-05-07T08:51:53;25.50;55.30
53268;DHT22;39156;51.176;6.738;2023-05-07T08:54:21;25.60;57.50
53268;DHT22;39156;51.176;6.738;2023-05-07T08:56:46;25.80;54.90
53268;DHT22;39156;51.176;6.738;2023-05-07T08:59:13;25.80;53.60
53268;DHT22;39156;51.176;6.738;2023-05-07T09:01:39;25.80;53.30
53268;DHT22;39156;51.176;6.738;2023-05-07T09:04:04;25.70;53.10
53268;DHT22;39156;51.176;6.738;2023-05-07T09:06:32;25.60;53.10
53268;DHT22;39156;51.176;6.738;2023-05-07T09:08:59;25.60;52.40
53268;DHT22;39156;51.176;6.738;2023-05-07T09:11:26;25.40;52.30
53268;DHT22;39156;51.176;6.738;2023-05-07T09:13:56;25.30;52.10
53268;DHT22;39156;51.176;6.738;2023-05-07T09:16:23;25.10;52.10
53268;DHT22;39156;51.176;6.738;2023-05-07T09:18:54;25.10;52.70
53268;DHT22;39156;51.176;6.738;2023-05-07T09:21:20;25.10;52.30
53268;DHT22;39156;51.176;6.738;2023-05-07T09:23:52;25.00;52.40
53268;DHT22;39156;51.176;6.738;2023-05-07T09:26:21;24.90;52.30
53268;DHT22;39156;51.176;6.738;2023-05-07T09:28:47;24.90;52.50
53268;DHT22;39156;51.176;6.738;2023-05-07T09:31:13;24.90;52.40
53268;DHT22;39156;51.176;6.738;2023-05-07T09:33:39;24.80;52.10
53268;DHT22;39156;51.176;6.738;2023-05-07T09:36:05;24.70;52.60
53268;DHT22;39156;51.176;6.738;2023-05-07T09:38:33;24.70;54.00
53268;DHT22;39156;51.176;6.738;2023-05-07T09:41:11;24.70;53.10
53268;DHT22;39156;51.176;6.738;2023-05-07T09:43:39;24.80;53.40
53268;DHT22;39156;51.176;6.738;2023-05-07T09:46:12;24.90;53.70
53268;DHT22;39156;51.176;6.738;2023-05-07T09:48:40;25.10;53.50
53268;DHT22;39156;51.176;6.738;2023-05-07T09:51:31;25.30;53.40
53268;DHT22;39156;51.176;6.738;2023-05-07T09:54:02;25.60;53.10
53268;DHT22;39156;51.176;6.738;2023-05-07T09:56:29;25.90;52.70
53268;DHT22;39156;51.176;6.738;2023-05-07T09:58:59;26.10;52.30
53268;DHT22;39156;51.176;6.738;2023-05-07T10:01:26;26.30;51.80
53268;DHT22;39156;51.176;6.738;2023-05-07T10:03:52;26.50;51.10
53268;DHT22;39156;51.176;6.738;2023-05-07T10:06:20;26.60;50.80
53268;DHT22;39156;51.176;6.738;2023-05-07T10:08:46;26.70;49.90
53268;DHT22;39156;51.176;6.738;2023-05-07T10:11:13;26.80;49.70
53268;DHT22;39156;51.176;6.738;2023-05-07T10:13:41;26.70;49.20
53268;DHT22;39156;51.176;6.738;2023-05-07T10:16:08;26.60;49.30
53268;DHT22;39156;51.176;6.738;2023-05-07T10:18:34;26.50;49.50
53268;DHT22;39156;51.176;6.738;2023-05-07T10:21:20;26.50;49.00
53268;DHT22;39156;51.176;6.738;2023-05-07T10:24:20;26.30;49.30
53268;DHT22;39156;51.176;6.738;2023-05-07T10:26:51;26.20;49.60
53268;DHT22;39156;51.176;6.738;2023-05-07T10:34:37;26.20;48.30
53268;DHT22;39156;51.176;6.738;2023-05-07T10:37:05;26.20;48.00
53268;DHT22;39156;51.176;6.738;2023-05-07T10:39:32;26.20;47.50
53268;DHT22;39156;51.176;6.738;2023-05-07T10:42:07;26.30;47.90
53268;DHT22;39156;51.176;6.738;2023-05-07T10:44:36;26.30;47.80
53268;DHT22;39156;51.176;6.738;2023-05-07T10:47:19;26.50;47.70
53268;DHT22;39156;51.176;6.738;2023-05-07T10:52:12;26.70;46.50
53268;DHT22;39156;51.176;6.738;2023-05-07T10:54:39;26.80;45.40
53268;DHT22;39156;51.176;6.738;2023-05-07T10:57:35;26.70;45.00
53268;DHT22;39156;51.176;6.738;2023-05-07T11:00:02;26.60;44.70
53268;DHT22;39156;51.176;6.738;2023-05-07T11:05:30;26.50;44.90
53268;DHT22;39156;51.176;6.738;2023-05-07T11:08:01;26.30;44.50
53268;DHT22;39156;51.176;6.738;2023-05-07T11:10:49;26.20;44.80
53268;DHT22;39156;51.176;6.738;2023-05-07T11:13:41;26.20;45.20
53268;DHT22;39156;51.176;6.738;2023-05-07T11:16:24;26.10;44.40
53268;DHT22;39156;51.176;6.738;2023-05-07T11:18:54;26.10;45.50
53268;DHT22;39156;51.176;6.738;2023-05-07T11:24:09;26.20;44.90
53268;DHT22;39156;51.176;6.738;2023-05-07T11:27:02;26.20;44.20
53268;DHT22;39156;51.176;6.738;2023-05-07T11:29:30;26.20;45.10
53268;DHT22;39156;51.176;6.738;2023-05-07T11:31:56;26.20;44.20
53268;DHT22;39156;51.176;6.738;2023-05-07T11:34:24;26.20;44.60
53268;DHT22;39156;51.176;6.738;2023-05-07T11:36:51;26.20;44.70
53268;DHT22;39156;51.176;6.738;2023-05-07T11:39:31;26.10;44.80
53268;DHT22;39156;51.176;6.738;2023-05-07T11:41:59;26.10;44.60
53268;DHT22;39156;51.176;6.738;2023-05-07T11:44:38;26.10;44.10
53268;DHT22;39156;51.176;6.738;2023-05-07T11:47:06;26.10;44.40
53268;DHT22;39156;51.176;6.738;2023-05-07T11:49:31;26.10;44.70
53268;DHT22;39156;51.176;6.738;2023-05-07T11:51:57;26.00;44.70
53268;DHT22;39156;51.176;6.738;2023-05-07T11:54:23;26.10;45.10
53268;DHT22;39156;51.176;6.738;2023-05-07T11:56:49;26.10;44.70
53268;DHT22;39156;51.176;6.738;2023-05-07T11:59:17;26.20;44.50
53268;DHT22;39156;51.176;6.738;2023-05-07T12:01:45;26.20;43.70
53268;DHT22;39156;51.176;6.738;2023-05-07T12:04:12;26.20;43.80
53268;DHT22;39156;51.176;6.738;2023-05-07T12:06:37;26.30;43.80
53268;DHT22;39156;51.176;6.738;2023-05-07T12:09:04;26.30;43.80
53268;DHT22;39156;51.176;6.738;2023-05-07T12:11:32;26.20;43.70
53268;DHT22;39156;51.176;6.738;2023-05-07T12:13:57;26.20;43.70
53268;DHT22;39156;51.176;6.738;2023-05-07T12:16:23;26.20;43.90
53268;DHT22;39156;51.176;6.738;2023-05-07T12:18:50;26.20;44.30
53268;DHT22;39156;51.176;6.738;2023-05-07T12:21:18;26.10;44.10
53268;DHT22;39156;51.176;6.738;2023-05-07T12:23:44;26.10;44.00
53268;DHT22;39156;51.176;6.738;2023-05-07T12:26:10;26.10;44.30
53268;DHT22;39156;51.176;6.738;2023-05-07T12:28:37;26.10;44.40
53268;DHT22;39156;51.176;6.738;2023-05-07T12:31:06;26.10;44.50
53268;DHT22;39156;51.176;6.738;2023-05-07T12:33:33;26.10;44.90
53268;DHT22;39156;51.176;6.738;2023-05-07T12:36:05;26.20;45.00
53268;DHT22;39156;51.176;6.738;2023-05-07T12:38:36;26.20;44.90
53268;DHT22;39156;51.176;6.738;2023-05-07T12:41:03;26.20;44.20
53268;DHT22;39156;51.176;6.738;2023-05-07T12:43:29;26.20;44.50
53268;DHT22;39156;51.176;6.738;2023-05-07T12:45:57;26.20;44.80
53268;DHT22;39156;51.176;6.738;2023-05-07T12:48:25;26.30;44.30
53268;DHT22;39156;51.176;6.738;2023-05-07T12:50:54;26.20;44.30
53268;DHT22;39156;51.176;6.738;2023-05-07T12:53:21;26.20;44.70
53268;DHT22;39156;51.176;6.738;2023-05-07T12:55:49;26.20;44.20
53268;DHT22;39156;51.176;6.738;2023-05-07T13:00:42;26.10;44.30
53268;DHT22;39156;51.176;6.738;2023-05-07T13:03:09;26.10;44.30
53268;DHT22;39156;51.176;6.738;2023-05-07T13:05:35;26.00;44.20
53268;DHT22;39156;51.176;6.738;2023-05-07T13:08:01;26.00;44.50
53268;DHT22;39156;51.176;6.738;2023-05-07T13:10:27;25.80;44.10
53268;DHT22;39156;51.176;6.738;2023-05-07T13:12:54;25.70;45.00
53268;DHT22;39156;51.176;6.738;2023-05-07T13:15:19;25.70;45.10
53268;DHT22;39156;51.176;6.738;2023-05-07T13:17:46;25.60;45.20
53268;DHT22;39156;51.176;6.738;2023-05-07T13:20:12;25.50;45.20
53268;DHT22;39156;51.176;6.738;2023-05-07T13:22:40;25.40;45.20
53268;DHT22;39156;51.176;6.738;2023-05-07T13:25:07;25.40;45.10
53268;DHT22;39156;51.176;6.738;2023-05-07T13:27:35;25.40;45.10
53268;DHT22;39156;51.176;6.738;2023-05-07T13:30:05;25.30;45.50
53268;DHT22;39156;51.176;6.738;2023-05-07T13:32:34;25.20;45.50
53268;DHT22;39156;51.176;6.738;2023-05-07T13:35:00;25.10;45.60
53268;DHT22;39156;51.176;6.738;2023-05-07T13:37:29;25.00;45.70
53268;DHT22;39156;51.176;6.738;2023-05-07T13:39:55;24.90;46.10
53268;DHT22;39156;51.176;6.738;2023-05-07T13:42:21;24.70;46.10
53268;DHT22;39156;51.176;6.738;2023-05-07T13:44:46;24.60;46.50
53268;DHT22;39156;51.176;6.738;2023-05-07T13:47:12;24.40;46.60
53268;DHT22;39156;51.176;6.738;2023-05-07T13:49:38;24.30;47.30
53268;DHT22;39156;51.176;6.738;2023-05-07T13:52:04;24.00;47.60
53268;DHT22;39156;51.176;6.738;2023-05-07T13:54:29;23.90;48.10
53268;DHT22;39156;51.176;6.738;2023-05-07T13:56:55;23.70;48.40
53268;DHT22;39156;51.176;6.738;2023-05-07T13:59:21;23.50;48.40
53268;DHT22;39156;51.176;6.738;2023-05-07T14:01:46;23.30;48.50
53268;DHT22;39156;51.176;6.738;2023-05-07T14:04:12;23.20;48.90
53268;DHT22;39156;51.176;6.738;2023-05-07T14:06:38;23.00;49.30
53268;DHT22;39156;51.176;6.738;2023-05-07T14:09:04;22.90;49.80
53268;DHT22;39156;51.176;6.738;2023-05-07T14:11:30;22.70;50.30
53268;DHT22;39156;51.176;6.738;2023-05-07T14:13:55;22.60;51.60
53268;DHT22;39156;51.176;6.738;2023-05-07T14:16:22;22.50;52.40
53268;DHT22;39156;51.176;6.738;2023-05-07T14:18:48;22.30;52.80
53268;DHT22;39156;51.176;6.738;2023-05-07T14:21:13;22.10;53.40
53268;DHT22;39156;51.176;6.738;2023-05-07T14:23:39;21.90;54.00
53268;DHT22;39156;51.176;6.738;2023-05-07T14:26:05;21.70;54.60
53268;DHT22;39156;51.176;6.738;2023-05-07T14:28:30;21.50;55.40
53268;DHT22;39156;51.176;6.738;2023-05-07T14:30:56;21.30;56.00
53268;DHT22;39156;51.176;6.738;2023-05-07T14:33:22;21.10;56.80
53268;DHT22;39156;51.176;6.738;2023-05-07T14:35:47;20.90;57.40
53268;DHT22;39156;51.176;6.738;2023-05-07T14:38:15;20.80;58.10
53268;DHT22;39156;51.176;6.738;2023-05-07T14:40:41;20.60;58.50
53268;DHT22;39156;51.176;6.738;2023-05-07T14:43:06;20.50;59.10
53268;DHT22;39156;51.176;6.738;2023-05-07T14:45:32;20.40;59.50
53268;DHT22;39156;51.176;6.738;2023-05-07T14:47:58;20.40;59.80
53268;DHT22;39156;51.176;6.738;2023-05-07T14:50:23;20.30;60.00
53268;DHT22;39156;51.176;6.738;2023-05-07T14:52:49;20.30;60.40
53268;DHT22;39156;51.176;6.738;2023-05-07T14:55:15;20.20;60.60
53268;DHT22;39156;51.176;6.738;2023-05-07T14:57:41;20.20;61.50
53268;DHT22;39156;51.176;6.738;2023-05-07T15:00:07;20.30;61.20
53268;DHT22;39156;51.176;6.738;2023-05-07T15:02:34;20.30;61.70
53268;DHT22;39156;51.176;6.738;2023-05-07T15:04:59;20.30;61.90
53268;DHT22;39156;51.176;6.738;2023-05-07T15:07:25;20.20;62.10
53268;DHT22;39156;51.176;6.738;2023-05-07T15:09:51;20.30;62.50
53268;DHT22;39156;51.176;6.738;2023-05-07T15:12:17;20.30;62.80
53268;DHT22;39156;51.176;6.738;2023-05-07T15:14:42;20.40;62.40
53268;DHT22;39156;51.176;6.738;2023-05-07T15:17:08;20.50;62.10
53268;DHT22;39156;51.176;6.738;2023-05-07T15:19:34;20.50;61.80
53268;DHT22;39156;51.176;6.738;2023-05-07T15:22:00;20.50;61.70
53268;DHT22;39156;51.176;6.738;2023-05-07T15:24:29;20.50;61.70
53268;DHT22;39156;51.176;6.738;2023-05-07T15:26:55;20.40;61.80
53268;DHT22;39156;51.176;6.738;2023-05-07T15:29:21;20.50;61.90
53268;DHT22;39156;51.176;6.738;2023-05-07T15:31:47;20.50;61.90
53268;DHT22;39156;51.176;6.738;2023-05-07T15:34:16;20.50;62.20
53268;DHT22;39156;51.176;6.738;2023-05-07T15:36:41;20.50;61.90
53268;DHT22;39156;51.176;6.738;2023-05-07T15:39:07;20.60;61.50
53268;DHT22;39156;51.176;6.738;2023-05-07T15:41:33;20.50;61.30
53268;DHT22;39156;51.176;6.738;2023-05-07T15:43:58;20.50;61.20